sensor_id;sensor_type;location;lat;lon;timestamp;P1;durP1;ratioP1;P2;durP2;ratioP2
4084;SDS011;2057;50.858;6.572;2023-09-30T00:02:11;15.50;;;5.40;;
4084;SDS011;2057;50.858;6.572;2023-09-30T00:04:37;20.90;;;6.93;;
4084;SDS011;2057;50.858;6.572;2023-09-30T00:07:02;16.00;;;5.70;;
4084;SDS011;2057;50.858;6.572;2023-09-30T00:09:28;12.70;;;5.03;;
4084;SDS011;2057;50.858;6.572;2023-09-30T00:11:53;12.37;;;4.70;;
4084;SDS011;2057;50.858;6.572;2023-09-30T00:14:20;12.53;;;4.90;;
4084;SDS011;2057;50.858;6.572;2023-09-30T00:16:45;15.40;;;5.10;;
4084;SDS011;2057;50.858;6.572;2023-09-30T00:19:13;8.90;;;4.30;;
4084;SDS011;2057;50.858;6.572;2023-09-30T00:21:38;10.57;;;5.10;;
4084;SDS011;2057;50.858;6.572;2023-09-30T00:24:04;10.17;;;4.30;;
4084;SDS011;2057;50.858;6.572;2023-09-30T00:26:32;15.40;;;5.40;;
4084;SDS011;2057;50.858;6.572;2023-09-30T00:29:00;18.00;;;5.10;;
4084;SDS011;2057;50.858;6.572;2023-09-30T00:31:25;13.33;;;5.00;;
4084;SDS011;2057;50.858;6.572;2023-09-30T00:33:50;21.33;;;6.03;;
4084;SDS011;2057;50.858;6.572;2023-09-30T00:36:16;26.30;;;5.73;;
4084;SDS011;2057;50.858;6.572;2023-09-30T00:38:41;15.87;;;5.10;;
4084;SDS011;2057;50.858;6.572;2023-09-30T00:41:06;18.77;;;5.57;;
4084;SDS011;2057;50.858;6.572;2023-09-30T00:43:32;18.00;;;6.13;;
4084;SDS011;2057;50.858;6.572;2023-09-30T00:48:45;25.23;;;6.43;;
4084;SDS011;2057;50.858;6.572;2023-09-30T00:51:11;14.30;;;5.40;;
4084;SDS011;2057;50.858;6.572;2023-09-30T00:53:39;14.47;;;5.90;;
4084;SDS011;2057;50.858;6.572;2023-09-30T00:56:09;21.63;;;5.77;;
4084;SDS011;2057;50.858;6.572;2023-09-30T00:58:38;24.63;;;6.07;;
4084;SDS011;2057;50.858;6.572;2023-09-30T01:01:04;29.07;;;6.20;;
4084;SDS011;2057;50.858;6.572;2023-09-30T01:03:32;12.03;;;5.00;;
4084;SDS011;2057;50.858;6.572;2023-09-30T01:05:58;14.67;;;6.07;;
4084;SDS011;2057;50.858;6.572;2023-09-30T01:08:24;13.00;;;4.47;;
4084;SDS011;2057;50.858;6.572;2023-09-30T01:10:50;22.63;;;5.40;;
4084;SDS011;2057;50.858;6.572;2023-09-30T01:13:16;19.03;;;6.13;;
4084;SDS011;2057;50.858;6.572;2023-09-30T01:15:41;19.13;;;5.67;;
4084;SDS011;2057;50.858;6.572;2023-09-30T01:18:06;20.63;;;6.37;;
4084;SDS011;2057;50.858;6.572;2023-09-30T01:20:32;19.27;;;5.87;;
4084;SDS011;2057;50.858;6.572;2023-09-30T01:22:57;21.10;;;5.93;;
4084;SDS011;2057;50.858;6.572;2023-09-30T01:25:25;22.03;;;7.30;;
4084;SDS011;2057;50.858;6.572;2023-09-30T01:27:53;19.43;;;6.10;;
4084;SDS011;2057;50.858;6.572;2023-09-30T01:30:19;17.63;;;5.80;;
4084;SDS011;2057;50.858;6.572;2023-09-30T01:32:48;23.53;;;6.33;;
4084;SDS011;2057;50.858;6.572;2023-09-30T01:35:13;12.80;;;6.47;;
4084;SDS011;2057;50.858;6.572;2023-09-30T01:37:39;19.83;;;5.60;;
4084;SDS011;2057;50.858;6.572;2023-09-30T01:40:04;16.87;;;6.47;;
4084;SDS011;2057;50.858;6.572;2023-09-30T01:42:35;11.43;;;5.70;;
4084;SDS011;2057;50.858;6.572;2023-09-30T01:45:01;15.27;;;6.40;;
4084;SDS011;2057;50.858;6.572;2023-09-30T01:47:26;24.07;;;6.33;;
4084;SDS011;2057;50.858;6.572;2023-09-30T01:49:56;17.80;;;6.07;;
4084;SDS011;2057;50.858;6.572;2023-09-30T01:52:22;23.40;;;6.97;;
4084;SDS011;2057;50.858;6.572;2023-09-30T01:54:50;11.63;;;5.30;;
4084;SDS011;2057;50.858;6.572;2023-09-30T01:57:16;27.37;;;7.17;;
4084;SDS011;2057;50.858;6.572;2023-09-30T01:59:42;18.00;;;5.30;;
4084;SDS011;2057;50.858;6.572;2023-09-30T02:02:07;16.57;;;6.80;;
4084;SDS011;2057;50.858;6.572;2023-09-30T02:04:33;14.97;;;6.50;;
4084;SDS011;2057;50.858;6.572;2023-09-30T02:06:58;12.77;;;6.37;;
4084;SDS011;2057;50.858;6.572;2023-09-30T02:09:26;27.30;;;6.87;;
4084;SDS011;2057;50.858;6.572;2023-09-30T02:11:51;10.90;;;5.67;;
4084;SDS011;2057;50.858;6.572;2023-09-30T02:14:20;19.80;;;7.00;;
4084;SDS011;2057;50.858;6.572;2023-09-30T02:16:45;17.83;;;5.50;;
4084;SDS011;2057;50.858;6.572;2023-09-30T02:19:11;18.30;;;6.13;;
4084;SDS011;2057;50.858;6.572;2023-09-30T02:21:38;14.47;;;6.47;;
4084;SDS011;2057;50.858;6.572;2023-09-30T02:24:03;21.97;;;5.87;;
4084;SDS011;2057;50.858;6.572;2023-09-30T02:26:32;10.00;;;5.80;;
4084;SDS011;2057;50.858;6.572;2023-09-30T02:28:57;13.00;;;6.07;;
4084;SDS011;2057;50.858;6.572;2023-09-30T02:31:26;10.03;;;5.80;;
4084;SDS011;2057;50.858;6.572;2023-09-30T02:33:51;16.40;;;5.67;;
4084;SDS011;2057;50.858;6.572;2023-09-30T02:36:17;16.53;;;5.90;;
4084;SDS011;2057;50.858;6.572;2023-09-30T02:38:42;14.13;;;6.50;;
4084;SDS011;2057;50.858;6.572;2023-09-30T02:41:10;15.03;;;6.47;;
4084;SDS011;2057;50.858;6.572;2023-09-30T02:43:38;14.17;;;6.40;;
4084;SDS011;2057;50.858;6.572;2023-09-30T02:46:03;13.90;;;5.87;;
4084;SDS011;2057;50.858;6.572;2023-09-30T02:48:29;20.17;;;7.63;;
4084;SDS011;2057;50.858;6.572;2023-09-30T02:50:54;16.73;;;5.67;;
4084;SDS011;2057;50.858;6.572;2023-09-30T02:53:20;14.07;;;5.83;;
4084;SDS011;2057;50.858;6.572;2023-09-30T02:55:45;21.50;;;6.90;;
4084;SDS011;2057;50.858;6.572;2023-09-30T02:58:11;15.80;;;7.20;;
4084;SDS011;2057;50.858;6.572;2023-09-30T03:00:37;11.47;;;7.00;;
4084;SDS011;2057;50.858;6.572;2023-09-30T03:03:03;16.03;;;8.10;;
4084;SDS011;2057;50.858;6.572;2023-09-30T03:05:29;24.40;;;9.30;;
4084;SDS011;2057;50.858;6.572;2023-09-30T03:07:57;22.90;;;8.33;;
4084;SDS011;2057;50.858;6.572;2023-09-30T03:10:24;16.93;;;8.40;;
4084;SDS011;2057;50.858;6.572;2023-09-30T03:12:52;20.60;;;8.80;;
4084;SDS011;2057;50.858;6.572;2023-09-30T03:15:18;22.70;;;10.20;;
4084;SDS011;2057;50.858;6.572;2023-09-30T03:17:43;23.00;;;9.27;;
4084;SDS011;2057;50.858;6.572;2023-09-30T03:20:09;23.00;;;10.00;;
4084;SDS011;2057;50.858;6.572;2023-09-30T03:22:42;15.90;;;8.83;;
4084;SDS011;2057;50.858;6.572;2023-09-30T03:25:12;15.47;;;8.97;;
4084;SDS011;2057;50.858;6.572;2023-09-30T03:27:40;33.67;;;9.70;;
4084;SDS011;2057;50.858;6.572;2023-09-30T03:30:06;18.90;;;10.57;;
4084;SDS011;2057;50.858;6.572;2023-09-30T03:32:32;22.27;;;10.30;;
4084;SDS011;2057;50.858;6.572;2023-09-30T03:34:58;18.87;;;11.33;;
4084;SDS011;2057;50.858;6.572;2023-09-30T03:37:31;40.97;;;10.47;;
4084;SDS011;2057;50.858;6.572;2023-09-30T03:39:57;25.57;;;12.77;;
4084;SDS011;2057;50.858;6.572;2023-09-30T03:42:22;16.97;;;11.53;;
4084;SDS011;2057;50.858;6.572;2023-09-30T03:44:48;24.37;;;11.63;;
4084;SDS011;2057;50.858;6.572;2023-09-30T03:47:14;21.60;;;10.70;;
4084;SDS011;2057;50.858;6.572;2023-09-30T03:49:40;24.70;;;10.83;;
4084;SDS011;2057;50.858;6.572;2023-09-30T03:52:07;23.30;;;10.97;;
4084;SDS011;2057;50.858;6.572;2023-09-30T03:54:33;22.23;;;10.47;;
4084;SDS011;2057;50.858;6.572;2023-09-30T03:56:59;20.03;;;10.83;;
4084;SDS011;2057;50.858;6.572;2023-09-30T03:59:25;32.70;;;13.43;;
4084;SDS011;2057;50.858;6.572;2023-09-30T04:01:52;29.53;;;12.20;;
4084;SDS011;2057;50.858;6.572;2023-09-30T04:04:19;34.80;;;11.83;;
4084;SDS011;2057;50.858;6.572;2023-09-30T04:06:46;18.70;;;11.63;;
4084;SDS011;2057;50.858;6.572;2023-09-30T04:09:13;19.40;;;12.00;;
4084;SDS011;2057;50.858;6.572;2023-09-30T04:11:39;21.57;;;11.73;;
4084;SDS011;2057;50.858;6.572;2023-09-30T04:14:07;27.60;;;11.07;;
4084;SDS011;2057;50.858;6.572;2023-09-30T04:16:33;18.57;;;11.47;;
4084;SDS011;2057;50.858;6.572;2023-09-30T04:19:02;20.40;;;12.07;;
4084;SDS011;2057;50.858;6.572;2023-09-30T04:21:28;33.63;;;13.03;;
4084;SDS011;2057;50.858;6.572;2023-09-30T04:23:55;24.67;;;11.50;;
4084;SDS011;2057;50.858;6.572;2023-09-30T04:26:23;22.80;;;12.17;;
4084;SDS011;2057;50.858;6.572;2023-09-30T04:28:48;23.50;;;12.60;;
4084;SDS011;2057;50.858;6.572;2023-09-30T04:31:14;26.73;;;13.27;;
4084;SDS011;2057;50.858;6.572;2023-09-30T04:33:43;27.00;;;13.50;;
4084;SDS011;2057;50.858;6.572;2023-09-30T04:36:09;27.47;;;14.60;;
4084;SDS011;2057;50.858;6.572;2023-09-30T04:38:35;27.97;;;13.70;;
4084;SDS011;2057;50.858;6.572;2023-09-30T04:41:02;19.83;;;13.00;;
4084;SDS011;2057;50.858;6.572;2023-09-30T04:43:28;28.07;;;15.53;;
4084;SDS011;2057;50.858;6.572;2023-09-30T04:45:54;30.30;;;14.90;;
4084;SDS011;2057;50.858;6.572;2023-09-30T04:48:21;28.37;;;16.63;;
4084;SDS011;2057;50.858;6.572;2023-09-30T04:50:47;34.17;;;15.40;;
4084;SDS011;2057;50.858;6.572;2023-09-30T04:53:12;26.53;;;16.10;;
4084;SDS011;2057;50.858;6.572;2023-09-30T04:55:38;26.80;;;16.20;;
4084;SDS011;2057;50.858;6.572;2023-09-30T04:58:03;29.53;;;16.77;;
4084;SDS011;2057;50.858;6.572;2023-09-30T05:00:30;29.90;;;15.53;;
4084;SDS011;2057;50.858;6.572;2023-09-30T05:02:55;25.43;;;16.70;;
4084;SDS011;2057;50.858;6.572;2023-09-30T05:05:21;29.37;;;16.10;;
4084;SDS011;2057;50.858;6.572;2023-09-30T05:07:46;25.97;;;15.20;;
4084;SDS011;2057;50.858;6.572;2023-09-30T05:10:13;37.20;;;16.10;;
4084;SDS011;2057;50.858;6.572;2023-09-30T05:12:41;32.83;;;15.90;;
4084;SDS011;2057;50.858;6.572;2023-09-30T05:15:10;29.87;;;15.27;;
4084;SDS011;2057;50.858;6.572;2023-09-30T05:17:36;22.23;;;13.30;;
4084;SDS011;2057;50.858;6.572;2023-09-30T05:20:01;31.00;;;16.30;;
4084;SDS011;2057;50.858;6.572;2023-09-30T05:22:34;23.07;;;15.17;;
4084;SDS011;2057;50.858;6.572;2023-09-30T05:24:59;26.50;;;16.07;;
4084;SDS011;2057;50.858;6.572;2023-09-30T05:27:25;40.17;;;16.63;;
4084;SDS011;2057;50.858;6.572;2023-09-30T05:29:51;20.90;;;14.27;;
4084;SDS011;2057;50.858;6.572;2023-09-30T05:32:16;21.20;;;13.60;;
4084;SDS011;2057;50.858;6.572;2023-09-30T05:34:46;23.23;;;13.77;;
4084;SDS011;2057;50.858;6.572;2023-09-30T05:37:13;19.40;;;14.17;;
4084;SDS011;2057;50.858;6.572;2023-09-30T05:39:38;28.43;;;13.30;;
4084;SDS011;2057;50.858;6.572;2023-09-30T05:42:04;20.10;;;14.00;;
4084;SDS011;2057;50.858;6.572;2023-09-30T05:44:30;72.93;;;17.50;;
4084;SDS011;2057;50.858;6.572;2023-09-30T05:46:56;27.00;;;16.20;;
4084;SDS011;2057;50.858;6.572;2023-09-30T05:49:22;27.57;;;13.87;;
4084;SDS011;2057;50.858;6.572;2023-09-30T05:51:48;24.90;;;14.10;;
4084;SDS011;2057;50.858;6.572;2023-09-30T05:54:18;32.33;;;15.90;;
4084;SDS011;2057;50.858;6.572;2023-09-30T05:56:43;24.10;;;16.03;;
4084;SDS011;2057;50.858;6.572;2023-09-30T05:59:09;18.50;;;13.67;;
4084;SDS011;2057;50.858;6.572;2023-09-30T06:01:35;23.43;;;15.17;;
4084;SDS011;2057;50.858;6.572;2023-09-30T06:04:01;25.60;;;15.73;;
4084;SDS011;2057;50.858;6.572;2023-09-30T06:06:27;25.60;;;16.20;;
4084;SDS011;2057;50.858;6.572;2023-09-30T06:08:58;25.13;;;14.67;;
4084;SDS011;2057;50.858;6.572;2023-09-30T06:11:24;15.43;;;12.63;;
4084;SDS011;2057;50.858;6.572;2023-09-30T06:13:50;26.60;;;14.43;;
4084;SDS011;2057;50.858;6.572;2023-09-30T06:16:19;25.70;;;15.43;;
4084;SDS011;2057;50.858;6.572;2023-09-30T06:18:45;22.20;;;15.03;;
4084;SDS011;2057;50.858;6.572;2023-09-30T06:21:10;21.30;;;13.20;;
4084;SDS011;2057;50.858;6.572;2023-09-30T06:23:36;18.97;;;15.67;;
4084;SDS011;2057;50.858;6.572;2023-09-30T06:26:02;20.90;;;13.70;;
4084;SDS011;2057;50.858;6.572;2023-09-30T06:28:27;22.20;;;13.93;;
4084;SDS011;2057;50.858;6.572;2023-09-30T06:30:56;20.43;;;13.50;;
4084;SDS011;2057;50.858;6.572;2023-09-30T06:33:21;19.40;;;14.10;;
4084;SDS011;2057;50.858;6.572;2023-09-30T06:35:47;23.13;;;16.20;;
4084;SDS011;2057;50.858;6.572;2023-09-30T06:38:21;19.23;;;13.50;;
4084;SDS011;2057;50.858;6.572;2023-09-30T06:40:48;22.77;;;15.27;;
4084;SDS011;2057;50.858;6.572;2023-09-30T06:43:16;18.73;;;14.57;;
4084;SDS011;2057;50.858;6.572;2023-09-30T06:45:45;19.80;;;14.33;;
4084;SDS011;2057;50.858;6.572;2023-09-30T06:48:12;20.60;;;12.73;;
4084;SDS011;2057;50.858;6.572;2023-09-30T06:50:44;19.33;;;14.00;;
4084;SDS011;2057;50.858;6.572;2023-09-30T06:53:10;24.77;;;13.07;;
4084;SDS011;2057;50.858;6.572;2023-09-30T06:55:37;20.40;;;13.67;;
4084;SDS011;2057;50.858;6.572;2023-09-30T06:58:08;19.00;;;12.77;;
4084;SDS011;2057;50.858;6.572;2023-09-30T07:00:36;18.77;;;12.60;;
4084;SDS011;2057;50.858;6.572;2023-09-30T07:03:04;21.57;;;12.97;;
4084;SDS011;2057;50.858;6.572;2023-09-30T07:05:30;20.40;;;13.67;;
4084;SDS011;2057;50.858;6.572;2023-09-30T07:07:56;16.70;;;12.00;;
4084;SDS011;2057;50.858;6.572;2023-09-30T07:10:21;18.27;;;11.70;;
4084;SDS011;2057;50.858;6.572;2023-09-30T07:12:47;18.13;;;12.20;;
4084;SDS011;2057;50.858;6.572;2023-09-30T07:15:12;19.20;;;12.00;;
4084;SDS011;2057;50.858;6.572;2023-09-30T07:17:39;15.70;;;11.70;;
4084;SDS011;2057;50.858;6.572;2023-09-30T07:20:05;19.13;;;12.13;;
4084;SDS011;2057;50.858;6.572;2023-09-30T07:22:35;17.93;;;10.53;;
4084;SDS011;2057;50.858;6.572;2023-09-30T07:25:00;17.90;;;10.80;;
4084;SDS011;2057;50.858;6.572;2023-09-30T07:27:25;18.57;;;11.37;;
4084;SDS011;2057;50.858;6.572;2023-09-30T07:29:51;19.13;;;10.67;;
4084;SDS011;2057;50.858;6.572;2023-09-30T07:32:16;19.20;;;9.27;;
4084;SDS011;2057;50.858;6.572;2023-09-30T07:34:42;13.10;;;9.43;;
4084;SDS011;2057;50.858;6.572;2023-09-30T07:37:07;12.20;;;9.07;;
4084;SDS011;2057;50.858;6.572;2023-09-30T07:39:33;14.60;;;8.70;;
4084;SDS011;2057;50.858;6.572;2023-09-30T07:41:59;18.90;;;9.40;;
4084;SDS011;2057;50.858;6.572;2023-09-30T07:44:28;16.53;;;9.60;;
4084;SDS011;2057;50.858;6.572;2023-09-30T07:46:55;18.23;;;10.00;;
4084;SDS011;2057;50.858;6.572;2023-09-30T07:49:20;13.27;;;8.40;;
4084;SDS011;2057;50.858;6.572;2023-09-30T07:51:49;17.40;;;9.27;;
4084;SDS011;2057;50.858;6.572;2023-09-30T07:54:16;9.73;;;8.40;;
4084;SDS011;2057;50.858;6.572;2023-09-30T07:56:42;11.63;;;8.10;;
4084;SDS011;2057;50.858;6.572;2023-09-30T07:59:07;14.97;;;7.50;;
4084;SDS011;2057;50.858;6.572;2023-09-30T08:01:33;21.60;;;9.23;;
4084;SDS011;2057;50.858;6.572;2023-09-30T08:03:58;19.10;;;8.73;;
4084;SDS011;2057;50.858;6.572;2023-09-30T08:06:23;16.17;;;8.60;;
4084;SDS011;2057;50.858;6.572;2023-09-30T08:08:49;11.63;;;7.50;;
4084;SDS011;2057;50.858;6.572;2023-09-30T08:11:14;22.27;;;8.10;;
4084;SDS011;2057;50.858;6.572;2023-09-30T08:13:43;17.00;;;10.27;;
4084;SDS011;2057;50.858;6.572;2023-09-30T08:16:11;15.30;;;10.70;;
4084;SDS011;2057;50.858;6.572;2023-09-30T08:18:36;17.80;;;10.67;;
4084;SDS011;2057;50.858;6.572;2023-09-30T08:21:02;11.10;;;6.83;;
4084;SDS011;2057;50.858;6.572;2023-09-30T08:28:37;15.50;;;9.73;;
4084;SDS011;2057;50.858;6.572;2023-09-30T08:36:11;14.83;;;9.20;;
4084;SDS011;2057;50.858;6.572;2023-09-30T08:38:41;13.60;;;9.60;;
4084;SDS011;2057;50.858;6.572;2023-09-30T08:41:07;15.57;;;10.30;;
4084;SDS011;2057;50.858;6.572;2023-09-30T08:43:39;21.60;;;11.50;;
4084;SDS011;2057;50.858;6.572;2023-09-30T08:46:10;11.77;;;8.80;;
4084;SDS011;2057;50.858;6.572;2023-09-30T08:48:36;16.37;;;10.23;;
4084;SDS011;2057;50.858;6.572;2023-09-30T08:51:02;18.23;;;10.50;;
4084;SDS011;2057;50.858;6.572;2023-09-30T08:53:28;13.10;;;8.97;;
4084;SDS011;2057;50.858;6.572;2023-09-30T08:55:56;16.30;;;9.90;;
4084;SDS011;2057;50.858;6.572;2023-09-30T08:58:24;14.13;;;9.27;;
4084;SDS011;2057;50.858;6.572;2023-09-30T09:00:51;17.37;;;8.87;;
4084;SDS011;2057;50.858;6.572;2023-09-30T09:03:18;30.87;;;11.27;;
4084;SDS011;2057;50.858;6.572;2023-09-30T09:05:55;19.13;;;9.57;;
4084;SDS011;2057;50.858;6.572;2023-09-30T09:08:25;16.60;;;8.53;;
4084;SDS011;2057;50.858;6.572;2023-09-30T09:10:55;14.60;;;8.30;;
4084;SDS011;2057;50.858;6.572;2023-09-30T09:13:22;12.73;;;8.27;;
4084;SDS011;2057;50.858;6.572;2023-09-30T09:15:47;14.70;;;8.20;;
4084;SDS011;2057;50.858;6.572;2023-09-30T09:18:15;16.83;;;8.30;;
4084;SDS011;2057;50.858;6.572;2023-09-30T09:23:39;13.80;;;7.50;;
4084;SDS011;2057;50.858;6.572;2023-09-30T09:26:08;15.97;;;8.73;;
4084;SDS011;2057;50.858;6.572;2023-09-30T09:28:38;16.20;;;8.00;;
4084;SDS011;2057;50.858;6.572;2023-09-30T09:31:23;14.20;;;7.50;;
4084;SDS011;2057;50.858;6.572;2023-09-30T09:33:53;19.73;;;7.67;;
4084;SDS011;2057;50.858;6.572;2023-09-30T09:36:19;14.00;;;7.03;;
4084;SDS011;2057;50.858;6.572;2023-09-30T09:38:48;17.87;;;7.60;;
4084;SDS011;2057;50.858;6.572;2023-09-30T09:41:17;16.73;;;8.60;;
4084;SDS011;2057;50.858;6.572;2023-09-30T09:43:42;13.47;;;7.47;;
4084;SDS011;2057;50.858;6.572;2023-09-30T09:46:08;17.60;;;6.80;;
4084;SDS011;2057;50.858;6.572;2023-09-30T09:48:35;11.57;;;6.13;;
4084;SDS011;2057;50.858;6.572;2023-09-30T09:51:01;12.67;;;5.53;;
4084;SDS011;2057;50.858;6.572;2023-09-30T09:53:29;14.43;;;6.10;;
4084;SDS011;2057;50.858;6.572;2023-09-30T09:55:56;14.87;;;7.20;;
4084;SDS011;2057;50.858;6.572;2023-09-30T09:58:25;15.83;;;6.30;;
4084;SDS011;2057;50.858;6.572;2023-09-30T10:00:52;16.23;;;6.80;;
4084;SDS011;2057;50.858;6.572;2023-09-30T10:03:18;17.23;;;8.33;;
4084;SDS011;2057;50.858;6.572;2023-09-30T10:05:43;8.47;;;4.47;;
4084;SDS011;2057;50.858;6.572;2023-09-30T10:08:14;13.47;;;4.37;;
4084;SDS011;2057;50.858;6.572;2023-09-30T10:10:43;9.80;;;4.67;;
4084;SDS011;2057;50.858;6.572;2023-09-30T10:13:40;13.93;;;6.70;;
4084;SDS011;2057;50.858;6.572;2023-09-30T10:19:07;14.20;;;5.27;;
4084;SDS011;2057;50.858;6.572;2023-09-30T10:21:33;13.90;;;5.30;;
4084;SDS011;2057;50.858;6.572;2023-09-30T10:36:00;14.47;;;5.30;;
4084;SDS011;2057;50.858;6.572;2023-09-30T10:40:52;16.63;;;5.00;;
4084;SDS011;2057;50.858;6.572;2023-09-30T10:43:33;12.27;;;4.17;;
4084;SDS011;2057;50.858;6.572;2023-09-30T10:46:00;23.13;;;4.87;;
4084;SDS011;2057;50.858;6.572;2023-09-30T10:50:58;12.83;;;4.37;;
4084;SDS011;2057;50.858;6.572;2023-09-30T10:56:00;13.53;;;4.40;;
4084;SDS011;2057;50.858;6.572;2023-09-30T11:01:05;14.03;;;4.10;;
4084;SDS011;2057;50.858;6.572;2023-09-30T11:03:30;10.07;;;4.87;;
4084;SDS011;2057;50.858;6.572;2023-09-30T11:05:58;13.57;;;3.57;;
4084;SDS011;2057;50.858;6.572;2023-09-30T11:08:24;11.10;;;4.03;;
4084;SDS011;2057;50.858;6.572;2023-09-30T11:10:54;9.40;;;3.83;;
4084;SDS011;2057;50.858;6.572;2023-09-30T11:13:21;10.40;;;3.80;;
4084;SDS011;2057;50.858;6.572;2023-09-30T11:15:47;12.67;;;4.03;;
4084;SDS011;2057;50.858;6.572;2023-09-30T11:18:15;11.83;;;4.70;;
4084;SDS011;2057;50.858;6.572;2023-09-30T11:20:42;14.27;;;4.83;;
4084;SDS011;2057;50.858;6.572;2023-09-30T11:23:09;19.17;;;3.70;;
4084;SDS011;2057;50.858;6.572;2023-09-30T11:25:35;18.07;;;4.70;;
4084;SDS011;2057;50.858;6.572;2023-09-30T11:28:12;14.67;;;4.30;;
4084;SDS011;2057;50.858;6.572;2023-09-30T11:30:57;21.30;;;4.83;;
4084;SDS011;2057;50.858;6.572;2023-09-30T11:33:24;14.90;;;4.37;;
4084;SDS011;2057;50.858;6.572;2023-09-30T11:38:29;12.47;;;4.17;;
4084;SDS011;2057;50.858;6.572;2023-09-30T11:41:07;12.00;;;4.37;;
4084;SDS011;2057;50.858;6.572;2023-09-30T11:43:33;8.13;;;3.67;;
4084;SDS011;2057;50.858;6.572;2023-09-30T11:46:06;12.63;;;4.77;;
4084;SDS011;2057;50.858;6.572;2023-09-30T11:48:36;18.93;;;4.17;;
4084;SDS011;2057;50.858;6.572;2023-09-30T11:51:02;11.13;;;4.17;;
4084;SDS011;2057;50.858;6.572;2023-09-30T11:53:29;11.60;;;3.27;;
4084;SDS011;2057;50.858;6.572;2023-09-30T11:56:00;15.93;;;4.10;;
4084;SDS011;2057;50.858;6.572;2023-09-30T11:58:27;15.07;;;3.70;;
4084;SDS011;2057;50.858;6.572;2023-09-30T12:01:00;11.67;;;4.47;;
4084;SDS011;2057;50.858;6.572;2023-09-30T12:03:26;22.97;;;4.30;;
4084;SDS011;2057;50.858;6.572;2023-09-30T12:05:54;9.80;;;3.93;;
4084;SDS011;2057;50.858;6.572;2023-09-30T12:08:22;20.63;;;4.43;;
4084;SDS011;2057;50.858;6.572;2023-09-30T12:10:50;20.73;;;3.80;;
4084;SDS011;2057;50.858;6.572;2023-09-30T12:13:15;10.17;;;3.10;;
4084;SDS011;2057;50.858;6.572;2023-09-30T12:15:41;8.43;;;3.70;;
4084;SDS011;2057;50.858;6.572;2023-09-30T12:18:07;12.77;;;3.77;;
4084;SDS011;2057;50.858;6.572;2023-09-30T12:20:35;13.17;;;4.20;;
4084;SDS011;2057;50.858;6.572;2023-09-30T12:23:01;8.83;;;3.60;;
4084;SDS011;2057;50.858;6.572;2023-09-30T12:25:26;14.20;;;4.23;;
4084;SDS011;2057;50.858;6.572;2023-09-30T12:27:53;11.87;;;4.00;;
4084;SDS011;2057;50.858;6.572;2023-09-30T12:30:20;15.93;;;3.90;;
4084;SDS011;2057;50.858;6.572;2023-09-30T12:32:46;7.50;;;4.03;;
4084;SDS011;2057;50.858;6.572;2023-09-30T12:35:11;10.90;;;4.53;;
4084;SDS011;2057;50.858;6.572;2023-09-30T12:37:39;7.50;;;3.70;;
4084;SDS011;2057;50.858;6.572;2023-09-30T12:40:05;12.93;;;3.97;;
4084;SDS011;2057;50.858;6.572;2023-09-30T12:42:36;11.83;;;3.87;;
4084;SDS011;2057;50.858;6.572;2023-09-30T12:45:02;12.90;;;4.83;;
4084;SDS011;2057;50.858;6.572;2023-09-30T12:47:30;11.07;;;4.00;;
4084;SDS011;2057;50.858;6.572;2023-09-30T12:49:56;15.63;;;4.70;;
4084;SDS011;2057;50.858;6.572;2023-09-30T12:52:22;11.47;;;3.70;;
4084;SDS011;2057;50.858;6.572;2023-09-30T12:54:49;10.10;;;4.43;;
4084;SDS011;2057;50.858;6.572;2023-09-30T12:57:14;9.30;;;4.30;;
4084;SDS011;2057;50.858;6.572;2023-09-30T12:59:42;13.00;;;4.07;;
4084;SDS011;2057;50.858;6.572;2023-09-30T13:02:11;11.00;;;4.20;;
4084;SDS011;2057;50.858;6.572;2023-09-30T13:04:36;8.27;;;4.17;;
4084;SDS011;2057;50.858;6.572;2023-09-30T13:07:02;17.77;;;4.90;;
4084;SDS011;2057;50.858;6.572;2023-09-30T13:09:28;12.10;;;3.70;;
4084;SDS011;2057;50.858;6.572;2023-09-30T13:11:53;17.27;;;4.20;;
4084;SDS011;2057;50.858;6.572;2023-09-30T13:14:18;7.87;;;3.57;;
4084;SDS011;2057;50.858;6.572;2023-09-30T13:16:44;6.60;;;3.50;;
4084;SDS011;2057;50.858;6.572;2023-09-30T13:19:09;12.90;;;4.70;;
4084;SDS011;2057;50.858;6.572;2023-09-30T13:21:34;11.10;;;3.97;;
4084;SDS011;2057;50.858;6.572;2023-09-30T13:24:00;15.00;;;4.40;;
4084;SDS011;2057;50.858;6.572;2023-09-30T13:26:25;14.30;;;4.00;;
4084;SDS011;2057;50.858;6.572;2023-09-30T13:28:51;10.63;;;4.20;;
4084;SDS011;2057;50.858;6.572;2023-09-30T13:31:16;10.10;;;4.27;;
4084;SDS011;2057;50.858;6.572;2023-09-30T13:33:41;12.73;;;4.30;;
4084;SDS011;2057;50.858;6.572;2023-09-30T13:36:07;14.03;;;4.73;;
4084;SDS011;2057;50.858;6.572;2023-09-30T13:38:32;7.90;;;4.47;;
4084;SDS011;2057;50.858;6.572;2023-09-30T13:41:02;11.33;;;3.97;;
4084;SDS011;2057;50.858;6.572;2023-09-30T13:43:27;9.20;;;3.70;;
4084;SDS011;2057;50.858;6.572;2023-09-30T13:45:53;6.80;;;3.70;;
4084;SDS011;2057;50.858;6.572;2023-09-30T13:48:18;9.20;;;4.10;;
4084;SDS011;2057;50.858;6.572;2023-09-30T13:50:43;7.20;;;3.67;;
4084;SDS011;2057;50.858;6.572;2023-09-30T13:53:09;12.20;;;4.23;;
4084;SDS011;2057;50.858;6.572;2023-09-30T13:55:37;13.80;;;3.97;;
4084;SDS011;2057;50.858;6.572;2023-09-30T13:58:06;9.20;;;4.00;;
4084;SDS011;2057;50.858;6.572;2023-09-30T14:00:31;14.93;;;3.60;;
4084;SDS011;2057;50.858;6.572;2023-09-30T14:02:56;8.07;;;3.93;;
4084;SDS011;2057;50.858;6.572;2023-09-30T14:05:22;14.33;;;5.10;;
4084;SDS011;2057;50.858;6.572;2023-09-30T14:07:52;8.07;;;3.80;;
4084;SDS011;2057;50.858;6.572;2023-09-30T14:10:18;8.83;;;3.77;;
4084;SDS011;2057;50.858;6.572;2023-09-30T14:12:43;6.67;;;3.87;;
4084;SDS011;2057;50.858;6.572;2023-09-30T14:15:09;8.80;;;4.33;;
4084;SDS011;2057;50.858;6.572;2023-09-30T14:17:35;8.50;;;4.30;;
4084;SDS011;2057;50.858;6.572;2023-09-30T14:20:00;15.97;;;4.97;;
4084;SDS011;2057;50.858;6.572;2023-09-30T14:22:25;7.60;;;3.63;;
4084;SDS011;2057;50.858;6.572;2023-09-30T14:24:52;13.70;;;4.63;;
4084;SDS011;2057;50.858;6.572;2023-09-30T14:27:17;12.83;;;4.00;;
4084;SDS011;2057;50.858;6.572;2023-09-30T14:29:42;10.17;;;4.33;;
4084;SDS011;2057;50.858;6.572;2023-09-30T14:32:08;7.60;;;4.20;;
4084;SDS011;2057;50.858;6.572;2023-09-30T14:34:33;11.40;;;3.47;;
4084;SDS011;2057;50.858;6.572;2023-09-30T14:37:02;11.17;;;4.33;;
4084;SDS011;2057;50.858;6.572;2023-09-30T14:39:30;8.60;;;3.80;;
4084;SDS011;2057;50.858;6.572;2023-09-30T14:41:55;8.13;;;3.63;;
4084;SDS011;2057;50.858;6.572;2023-09-30T14:44:21;8.50;;;3.77;;
4084;SDS011;2057;50.858;6.572;2023-09-30T14:46:48;7.20;;;2.97;;
4084;SDS011;2057;50.858;6.572;2023-09-30T14:49:13;8.90;;;4.07;;
4084;SDS011;2057;50.858;6.572;2023-09-30T14:51:38;12.67;;;4.93;;
4084;SDS011;2057;50.858;6.572;2023-09-30T14:54:04;10.30;;;3.87;;
4084;SDS011;2057;50.858;6.572;2023-09-30T14:56:30;8.00;;;3.73;;
4084;SDS011;2057;50.858;6.572;2023-09-30T14:58:56;9.07;;;3.63;;
4084;SDS011;2057;50.858;6.572;2023-09-30T15:01:24;9.63;;;3.60;;
4084;SDS011;2057;50.858;6.572;2023-09-30T15:03:51;7.43;;;3.90;;
4084;SDS011;2057;50.858;6.572;2023-09-30T15:06:16;9.13;;;3.60;;
4084;SDS011;2057;50.858;6.572;2023-09-30T15:08:41;14.03;;;4.60;;
4084;SDS011;2057;50.858;6.572;2023-09-30T15:11:12;12.80;;;4.00;;
4084;SDS011;2057;50.858;6.572;2023-09-30T15:13:39;11.47;;;4.10;;
4084;SDS011;2057;50.858;6.572;2023-09-30T15:16:05;7.23;;;4.13;;
4084;SDS011;2057;50.858;6.572;2023-09-30T15:18:31;5.40;;;3.40;;
4084;SDS011;2057;50.858;6.572;2023-09-30T15:20:56;8.07;;;3.20;;
4084;SDS011;2057;50.858;6.572;2023-09-30T15:23:21;11.37;;;4.53;;
4084;SDS011;2057;50.858;6.572;2023-09-30T15:25:47;11.33;;;4.70;;
4084;SDS011;2057;50.858;6.572;2023-09-30T15:28:12;9.03;;;3.73;;
4084;SDS011;2057;50.858;6.572;2023-09-30T15:30:38;12.77;;;4.80;;
4084;SDS011;2057;50.858;6.572;2023-09-30T15:33:04;11.80;;;4.37;;
4084;SDS011;2057;50.858;6.572;2023-09-30T15:35:30;7.97;;;3.87;;
4084;SDS011;2057;50.858;6.572;2023-09-30T15:37:55;12.80;;;4.13;;
4084;SDS011;2057;50.858;6.572;2023-09-30T15:40:22;9.90;;;4.23;;